sensor_id;sensor_type;location;lat;lon;timestamp;P1;durP1;ratioP1;P2;durP2;ratioP2
44816;SDS011;30529;53.570;9.964;2022-12-07T00:01:16;16.33;;;9.70;;
44816;SDS011;30529;53.570;9.964;2022-12-07T00:04:04;13.23;;;9.50;;
44816;SDS011;30529;53.570;9.964;2022-12-07T00:06:38;14.10;;;8.03;;
44816;SDS011;30529;53.570;9.964;2022-12-07T00:09:13;13.63;;;9.10;;
44816;SDS011;30529;53.570;9.964;2022-12-07T00:11:40;14.60;;;8.80;;
44816;SDS011;30529;53.570;9.964;2022-12-07T00:14:09;12.50;;;8.47;;
44816;SDS011;30529;53.570;9.964;2022-12-07T00:16:37;13.93;;;9.20;;
44816;SDS011;30529;53.570;9.964;2022-12-07T00:19:04;14.80;;;9.53;;
44816;SDS011;30529;53.570;9.964;2022-12-07T00:21:34;12.63;;;9.00;;
44816;SDS011;30529;53.570;9.964;2022-12-07T00:24:01;11.40;;;8.43;;
44816;SDS011;30529;53.570;9.964;2022-12-07T00:26:32;17.10;;;8.80;;
44816;SDS011;30529;53.570;9.964;2022-12-07T00:29:03;11.33;;;8.53;;
44816;SDS011;30529;53.570;9.964;2022-12-07T00:31:32;14.03;;;9.27;;
44816;SDS011;30529;53.570;9.964;2022-12-07T00:34:07;13.47;;;9.17;;
44816;SDS011;30529;53.570;9.964;2022-12-07T00:36:37;12.33;;;8.23;;
44816;SDS011;30529;53.570;9.964;2022-12-07T00:39:03;12.90;;;8.03;;
44816;SDS011;30529;53.570;9.964;2022-12-07T00:41:29;12.30;;;8.07;;
44816;SDS011;30529;53.570;9.964;2022-12-07T00:43:56;12.47;;;8.03;;
44816;SDS011;30529;53.570;9.964;2022-12-07T00:46:22;13.07;;;8.83;;
44816;SDS011;30529;53.570;9.964;2022-12-07T00:48:50;10.93;;;8.20;;
44816;SDS011;30529;53.570;9.964;2022-12-07T00:51:17;12.23;;;7.97;;
44816;SDS011;30529;53.570;9.964;2022-12-07T00:53:44;11.17;;;7.97;;
44816;SDS011;30529;53.570;9.964;2022-12-07T00:56:12;12.17;;;7.67;;
44816;SDS011;30529;53.570;9.964;2022-12-07T00:58:53;10.80;;;7.30;;
44816;SDS011;30529;53.570;9.964;2022-12-07T01:01:21;11.17;;;7.80;;
44816;SDS011;30529;53.570;9.964;2022-12-07T01:03:48;11.20;;;7.60;;
44816;SDS011;30529;53.570;9.964;2022-12-07T01:06:15;9.80;;;6.87;;
44816;SDS011;30529;53.570;9.964;2022-12-07T01:08:43;9.67;;;6.20;;
44816;SDS011;30529;53.570;9.964;2022-12-07T01:11:11;10.07;;;6.40;;
44816;SDS011;30529;53.570;9.964;2022-12-07T01:13:40;10.63;;;6.90;;
44816;SDS011;30529;53.570;9.964;2022-12-07T01:16:06;10.53;;;6.60;;
44816;SDS011;30529;53.570;9.964;2022-12-07T01:18:34;10.57;;;6.30;;
44816;SDS011;30529;53.570;9.964;2022-12-07T01:23:29;15.10;;;6.87;;
44816;SDS011;30529;53.570;9.964;2022-12-07T01:25:59;10.53;;;6.50;;
44816;SDS011;30529;53.570;9.964;2022-12-07T01:28:27;9.63;;;6.63;;
44816;SDS011;30529;53.570;9.964;2022-12-07T01:31:09;9.47;;;6.67;;
44816;SDS011;30529;53.570;9.964;2022-12-07T01:33:38;10.53;;;6.80;;
44816;SDS011;30529;53.570;9.964;2022-12-07T01:36:06;11.00;;;6.90;;
44816;SDS011;30529;53.570;9.964;2022-12-07T01:38:56;9.87;;;6.60;;
44816;SDS011;30529;53.570;9.964;2022-12-07T01:41:25;10.83;;;7.30;;
44816;SDS011;30529;53.570;9.964;2022-12-07T01:44:07;13.10;;;6.93;;
44816;SDS011;30529;53.570;9.964;2022-12-07T01:46:36;11.97;;;6.47;;
44816;SDS011;30529;53.570;9.964;2022-12-07T01:49:03;12.27;;;6.47;;
44816;SDS011;30529;53.570;9.964;2022-12-07T01:51:32;13.63;;;6.80;;
44816;SDS011;30529;53.570;9.964;2022-12-07T01:53:59;10.03;;;7.67;;
44816;SDS011;30529;53.570;9.964;2022-12-07T01:56:27;9.53;;;6.30;;
44816;SDS011;30529;53.570;9.964;2022-12-07T01:58:54;10.03;;;7.03;;
44816;SDS011;30529;53.570;9.964;2022-12-07T02:01:21;9.37;;;5.90;;
44816;SDS011;30529;53.570;9.964;2022-12-07T02:03:48;13.93;;;7.43;;
44816;SDS011;30529;53.570;9.964;2022-12-07T02:06:16;9.40;;;6.27;;
44816;SDS011;30529;53.570;9.964;2022-12-07T02:08:46;10.03;;;6.43;;
44816;SDS011;30529;53.570;9.964;2022-12-07T02:11:12;9.37;;;5.80;;
44816;SDS011;30529;53.570;9.964;2022-12-07T02:13:39;8.87;;;6.37;;
44816;SDS011;30529;53.570;9.964;2022-12-07T02:19:00;11.27;;;6.20;;
44816;SDS011;30529;53.570;9.964;2022-12-07T02:27:06;11.10;;;5.23;;
44816;SDS011;30529;53.570;9.964;2022-12-07T02:29:47;7.60;;;5.20;;
44816;SDS011;30529;53.570;9.964;2022-12-07T02:32:26;8.87;;;4.63;;
44816;SDS011;30529;53.570;9.964;2022-12-07T02:35:09;6.97;;;4.13;;
44816;SDS011;30529;53.570;9.964;2022-12-07T02:40:29;6.70;;;3.67;;
44816;SDS011;30529;53.570;9.964;2022-12-07T02:43:04;5.47;;;3.10;;
44816;SDS011;30529;53.570;9.964;2022-12-07T02:45:42;5.67;;;3.30;;
44816;SDS011;30529;53.570;9.964;2022-12-07T02:48:11;4.53;;;3.00;;
44816;SDS011;30529;53.570;9.964;2022-12-07T02:50:39;5.87;;;3.17;;
44816;SDS011;30529;53.570;9.964;2022-12-07T02:56:45;6.57;;;3.07;;
44816;SDS011;30529;53.570;9.964;2022-12-07T03:01:50;5.00;;;2.50;;
44816;SDS011;30529;53.570;9.964;2022-12-07T03:04:41;7.97;;;2.73;;
44816;SDS011;30529;53.570;9.964;2022-12-07T03:21:25;4.77;;;2.20;;
44816;SDS011;30529;53.570;9.964;2022-12-07T03:23:59;9.70;;;2.30;;
44816;SDS011;30529;53.570;9.964;2022-12-07T03:26:31;4.90;;;1.70;;
44816;SDS011;30529;53.570;9.964;2022-12-07T03:29:03;4.60;;;2.10;;
44816;SDS011;30529;53.570;9.964;2022-12-07T03:31:45;5.07;;;1.80;;
44816;SDS011;30529;53.570;9.964;2022-12-07T03:34:16;3.87;;;1.60;;
44816;SDS011;30529;53.570;9.964;2022-12-07T03:37:03;6.47;;;1.53;;
44816;SDS011;30529;53.570;9.964;2022-12-07T03:39:48;6.00;;;1.67;;
44816;SDS011;30529;53.570;9.964;2022-12-07T03:42:31;3.07;;;1.60;;
44816;SDS011;30529;53.570;9.964;2022-12-07T03:44:59;5.90;;;1.60;;
44816;SDS011;30529;53.570;9.964;2022-12-07T03:47:28;6.43;;;1.70;;
44816;SDS011;30529;53.570;9.964;2022-12-07T03:50:02;4.20;;;1.37;;
44816;SDS011;30529;53.570;9.964;2022-12-07T03:52:39;4.57;;;1.63;;
44816;SDS011;30529;53.570;9.964;2022-12-07T03:55:21;5.00;;;1.50;;
44816;SDS011;30529;53.570;9.964;2022-12-07T03:57:54;3.10;;;1.37;;
44816;SDS011;30529;53.570;9.964;2022-12-07T04:00:24;4.47;;;1.40;;
44816;SDS011;30529;53.570;9.964;2022-12-07T04:02:52;3.80;;;1.30;;
44816;SDS011;30529;53.570;9.964;2022-12-07T04:05:18;3.03;;;1.40;;
44816;SDS011;30529;53.570;9.964;2022-12-07T04:07:45;4.97;;;1.50;;
44816;SDS011;30529;53.570;9.964;2022-12-07T04:10:11;2.13;;;1.40;;
44816;SDS011;30529;53.570;9.964;2022-12-07T04:12:37;6.23;;;1.20;;
44816;SDS011;30529;53.570;9.964;2022-12-07T04:15:03;4.00;;;1.50;;
44816;SDS011;30529;53.570;9.964;2022-12-07T04:17:30;4.17;;;2.10;;
44816;SDS011;30529;53.570;9.964;2022-12-07T04:19:56;5.83;;;1.40;;
44816;SDS011;30529;53.570;9.964;2022-12-07T04:22:22;6.23;;;1.30;;
44816;SDS011;30529;53.570;9.964;2022-12-07T04:24:48;4.30;;;1.50;;
44816;SDS011;30529;53.570;9.964;2022-12-07T04:27:14;3.63;;;1.50;;
44816;SDS011;30529;53.570;9.964;2022-12-07T04:29:40;3.37;;;1.57;;
44816;SDS011;30529;53.570;9.964;2022-12-07T04:32:06;4.53;;;1.40;;
44816;SDS011;30529;53.570;9.964;2022-12-07T04:34:33;3.63;;;1.57;;
44816;SDS011;30529;53.570;9.964;2022-12-07T04:36:59;2.40;;;1.70;;
44816;SDS011;30529;53.570;9.964;2022-12-07T04:39:28;7.33;;;1.80;;
44816;SDS011;30529;53.570;9.964;2022-12-07T04:41:56;3.40;;;1.87;;
44816;SDS011;30529;53.570;9.964;2022-12-07T04:44:24;4.33;;;1.90;;
44816;SDS011;30529;53.570;9.964;2022-12-07T04:46:51;3.10;;;1.77;;
44816;SDS011;30529;53.570;9.964;2022-12-07T04:49:17;3.17;;;1.23;;
44816;SDS011;30529;53.570;9.964;2022-12-07T04:51:44;5.00;;;1.50;;
44816;SDS011;30529;53.570;9.964;2022-12-07T04:54:11;4.13;;;1.60;;
44816;SDS011;30529;53.570;9.964;2022-12-07T04:56:38;4.13;;;2.00;;
44816;SDS011;30529;53.570;9.964;2022-12-07T04:59:05;4.60;;;1.80;;
44816;SDS011;30529;53.570;9.964;2022-12-07T05:01:31;3.50;;;1.60;;
44816;SDS011;30529;53.570;9.964;2022-12-07T05:03:57;4.53;;;2.10;;
44816;SDS011;30529;53.570;9.964;2022-12-07T05:06:24;3.77;;;1.80;;
44816;SDS011;30529;53.570;9.964;2022-12-07T05:08:51;6.83;;;2.10;;
44816;SDS011;30529;53.570;9.964;2022-12-07T05:11:17;7.53;;;3.17;;
44816;SDS011;30529;53.570;9.964;2022-12-07T05:14:02;7.90;;;2.63;;
44816;SDS011;30529;53.570;9.964;2022-12-07T05:16:29;3.90;;;2.30;;
44816;SDS011;30529;53.570;9.964;2022-12-07T05:18:56;3.33;;;1.93;;
44816;SDS011;30529;53.570;9.964;2022-12-07T05:21:22;4.90;;;2.30;;
44816;SDS011;30529;53.570;9.964;2022-12-07T05:23:48;3.70;;;2.13;;
44816;SDS011;30529;53.570;9.964;2022-12-07T05:26:14;3.37;;;1.70;;
44816;SDS011;30529;53.570;9.964;2022-12-07T05:28:40;6.53;;;2.40;;
44816;SDS011;30529;53.570;9.964;2022-12-07T05:31:07;5.27;;;2.83;;
44816;SDS011;30529;53.570;9.964;2022-12-07T05:33:33;4.63;;;3.23;;
44816;SDS011;30529;53.570;9.964;2022-12-07T05:35:59;6.97;;;2.67;;
44816;SDS011;30529;53.570;9.964;2022-12-07T05:38:31;4.23;;;1.70;;
44816;SDS011;30529;53.570;9.964;2022-12-07T05:41:05;3.73;;;1.90;;
44816;SDS011;30529;53.570;9.964;2022-12-07T05:43:32;3.27;;;2.00;;
44816;SDS011;30529;53.570;9.964;2022-12-07T05:45:58;4.13;;;2.13;;
44816;SDS011;30529;53.570;9.964;2022-12-07T05:48:25;5.10;;;2.07;;
44816;SDS011;30529;53.570;9.964;2022-12-07T05:50:52;3.03;;;2.13;;
44816;SDS011;30529;53.570;9.964;2022-12-07T05:53:18;3.77;;;2.00;;
44816;SDS011;30529;53.570;9.964;2022-12-07T05:55:44;5.23;;;2.57;;
44816;SDS011;30529;53.570;9.964;2022-12-07T05:58:10;5.17;;;1.90;;
44816;SDS011;30529;53.570;9.964;2022-12-07T06:00:55;4.10;;;2.03;;
44816;SDS011;30529;53.570;9.964;2022-12-07T06:03:22;3.30;;;2.30;;
44816;SDS011;30529;53.570;9.964;2022-12-07T06:05:48;3.70;;;1.90;;
44816;SDS011;30529;53.570;9.964;2022-12-07T06:08:14;3.03;;;1.87;;
44816;SDS011;30529;53.570;9.964;2022-12-07T06:10:41;4.73;;;2.00;;
44816;SDS011;30529;53.570;9.964;2022-12-07T06:13:08;6.37;;;2.37;;
44816;SDS011;30529;53.570;9.964;2022-12-07T06:15:37;4.53;;;1.87;;
44816;SDS011;30529;53.570;9.964;2022-12-07T06:18:03;5.97;;;2.70;;
44816;SDS011;30529;53.570;9.964;2022-12-07T06:20:30;3.93;;;2.03;;
44816;SDS011;30529;53.570;9.964;2022-12-07T06:22:56;4.87;;;2.23;;
44816;SDS011;30529;53.570;9.964;2022-12-07T06:25:22;5.17;;;2.53;;
44816;SDS011;30529;53.570;9.964;2022-12-07T06:27:49;4.27;;;2.40;;
44816;SDS011;30529;53.570;9.964;2022-12-07T06:30:15;5.23;;;3.23;;
44816;SDS011;30529;53.570;9.964;2022-12-07T06:32:41;3.07;;;2.03;;
44816;SDS011;30529;53.570;9.964;2022-12-07T06:35:07;4.53;;;1.97;;
44816;SDS011;30529;53.570;9.964;2022-12-07T06:37:33;6.90;;;2.30;;
44816;SDS011;30529;53.570;9.964;2022-12-07T06:39:59;7.17;;;3.00;;
44816;SDS011;30529;53.570;9.964;2022-12-07T06:42:25;5.13;;;1.90;;
44816;SDS011;30529;53.570;9.964;2022-12-07T06:44:51;5.20;;;2.50;;
44816;SDS011;30529;53.570;9.964;2022-12-07T06:47:18;8.37;;;2.10;;
44816;SDS011;30529;53.570;9.964;2022-12-07T06:49:44;14.67;;;5.57;;
44816;SDS011;30529;53.570;9.964;2022-12-07T06:52:10;5.73;;;2.77;;
44816;SDS011;30529;53.570;9.964;2022-12-07T06:54:39;6.27;;;1.80;;
44816;SDS011;30529;53.570;9.964;2022-12-07T06:57:05;5.27;;;2.50;;
44816;SDS011;30529;53.570;9.964;2022-12-07T06:59:31;4.50;;;2.00;;
44816;SDS011;30529;53.570;9.964;2022-12-07T07:01:57;4.20;;;1.83;;
44816;SDS011;30529;53.570;9.964;2022-12-07T07:04:23;4.70;;;1.87;;
44816;SDS011;30529;53.570;9.964;2022-12-07T07:06:50;6.93;;;2.00;;
44816;SDS011;30529;53.570;9.964;2022-12-07T07:09:16;5.93;;;1.77;;
44816;SDS011;30529;53.570;9.964;2022-12-07T07:11:42;3.33;;;1.67;;
44816;SDS011;30529;53.570;9.964;2022-12-07T07:14:08;5.83;;;2.10;;
44816;SDS011;30529;53.570;9.964;2022-12-07T07:16:34;3.73;;;1.57;;
44816;SDS011;30529;53.570;9.964;2022-12-07T07:19:00;5.20;;;1.40;;
44816;SDS011;30529;53.570;9.964;2022-12-07T07:21:27;5.13;;;1.47;;
44816;SDS011;30529;53.570;9.964;2022-12-07T07:23:53;6.73;;;1.90;;
44816;SDS011;30529;53.570;9.964;2022-12-07T07:26:19;3.70;;;1.57;;
44816;SDS011;30529;53.570;9.964;2022-12-07T07:28:45;5.10;;;2.30;;
44816;SDS011;30529;53.570;9.964;2022-12-07T07:31:18;7.03;;;1.50;;
44816;SDS011;30529;53.570;9.964;2022-12-07T07:33:45;3.40;;;1.60;;
44816;SDS011;30529;53.570;9.964;2022-12-07T07:36:12;3.83;;;1.90;;
44816;SDS011;30529;53.570;9.964;2022-12-07T07:38:38;5.30;;;1.43;;
44816;SDS011;30529;53.570;9.964;2022-12-07T07:41:04;4.43;;;1.53;;
44816;SDS011;30529;53.570;9.964;2022-12-07T07:43:30;3.70;;;1.53;;
44816;SDS011;30529;53.570;9.964;2022-12-07T07:45:58;2.80;;;1.50;;
44816;SDS011;30529;53.570;9.964;2022-12-07T07:48:24;8.47;;;3.43;;
44816;SDS011;30529;53.570;9.964;2022-12-07T07:50:51;4.43;;;1.63;;
44816;SDS011;30529;53.570;9.964;2022-12-07T07:53:17;14.27;;;6.23;;
44816;SDS011;30529;53.570;9.964;2022-12-07T07:55:52;8.90;;;4.47;;
44816;SDS011;30529;53.570;9.964;2022-12-07T07:58:19;3.77;;;1.50;;
44816;SDS011;30529;53.570;9.964;2022-12-07T08:00:45;2.60;;;1.20;;
44816;SDS011;30529;53.570;9.964;2022-12-07T08:03:11;4.80;;;1.20;;
44816;SDS011;30529;53.570;9.964;2022-12-07T08:05:37;3.70;;;1.40;;
44816;SDS011;30529;53.570;9.964;2022-12-07T08:08:04;4.60;;;1.40;;
44816;SDS011;30529;53.570;9.964;2022-12-07T08:10:30;4.20;;;1.40;;
44816;SDS011;30529;53.570;9.964;2022-12-07T08:13:00;2.23;;;1.23;;
44816;SDS011;30529;53.570;9.964;2022-12-07T08:15:45;4.23;;;1.30;;
44816;SDS011;30529;53.570;9.964;2022-12-07T08:18:13;8.57;;;1.87;;
44816;SDS011;30529;53.570;9.964;2022-12-07T08:20:40;3.17;;;1.47;;
44816;SDS011;30529;53.570;9.964;2022-12-07T08:23:07;5.63;;;1.40;;
44816;SDS011;30529;53.570;9.964;2022-12-07T08:25:34;7.43;;;2.70;;
44816;SDS011;30529;53.570;9.964;2022-12-07T08:28:01;2.50;;;1.63;;
44816;SDS011;30529;53.570;9.964;2022-12-07T08:30:28;6.70;;;1.23;;
44816;SDS011;30529;53.570;9.964;2022-12-07T08:32:55;6.87;;;3.60;;
44816;SDS011;30529;53.570;9.964;2022-12-07T08:35:21;13.47;;;5.10;;
44816;SDS011;30529;53.570;9.964;2022-12-07T08:37:48;8.33;;;1.90;;
44816;SDS011;30529;53.570;9.964;2022-12-07T08:40:14;2.83;;;1.50;;
44816;SDS011;30529;53.570;9.964;2022-12-07T08:42:41;8.73;;;1.80;;
44816;SDS011;30529;53.570;9.964;2022-12-07T08:45:11;4.67;;;1.70;;
44816;SDS011;30529;53.570;9.964;2022-12-07T08:47:56;3.63;;;1.57;;
44816;SDS011;30529;53.570;9.964;2022-12-07T08:50:32;5.17;;;1.70;;
44816;SDS011;30529;53.570;9.964;2022-12-07T08:52:59;4.20;;;1.43;;
44816;SDS011;30529;53.570;9.964;2022-12-07T08:55:26;5.00;;;1.33;;
44816;SDS011;30529;53.570;9.964;2022-12-07T08:57:53;1.67;;;1.30;;
44816;SDS011;30529;53.570;9.964;2022-12-07T09:00:19;5.27;;;1.60;;
44816;SDS011;30529;53.570;9.964;2022-12-07T09:02:45;8.73;;;2.20;;
44816;SDS011;30529;53.570;9.964;2022-12-07T09:05:12;3.13;;;1.27;;
44816;SDS011;30529;53.570;9.964;2022-12-07T09:07:40;4.83;;;1.17;;
44816;SDS011;30529;53.570;9.964;2022-12-07T09:10:08;2.90;;;1.30;;
44816;SDS011;30529;53.570;9.964;2022-12-07T09:12:35;4.20;;;1.40;;
44816;SDS011;30529;53.570;9.964;2022-12-07T09:15:01;5.17;;;1.37;;
44816;SDS011;30529;53.570;9.964;2022-12-07T09:17:31;5.63;;;1.43;;
44816;SDS011;30529;53.570;9.964;2022-12-07T09:19:58;3.00;;;1.50;;
44816;SDS011;30529;53.570;9.964;2022-12-07T09:22:28;4.77;;;2.03;;
44816;SDS011;30529;53.570;9.964;2022-12-07T09:24:55;4.80;;;1.33;;
44816;SDS011;30529;53.570;9.964;2022-12-07T09:27:21;4.83;;;1.90;;
44816;SDS011;30529;53.570;9.964;2022-12-07T09:29:47;5.67;;;1.80;;
44816;SDS011;30529;53.570;9.964;2022-12-07T09:32:13;3.93;;;1.40;;
44816;SDS011;30529;53.570;9.964;2022-12-07T09:34:44;3.80;;;1.40;;
44816;SDS011;30529;53.570;9.964;2022-12-07T09:37:10;4.90;;;1.40;;
44816;SDS011;30529;53.570;9.964;2022-12-07T09:39:39;2.77;;;1.30;;
44816;SDS011;30529;53.570;9.964;2022-12-07T09:42:06;5.07;;;1.80;;
44816;SDS011;30529;53.570;9.964;2022-12-07T09:44:33;3.67;;;1.70;;
44816;SDS011;30529;53.570;9.964;2022-12-07T09:47:00;2.70;;;1.50;;
44816;SDS011;30529;53.570;9.964;2022-12-07T09:49:28;9.97;;;1.57;;
44816;SDS011;30529;53.570;9.964;2022-12-07T09:54:40;4.53;;;1.93;;
44816;SDS011;30529;53.570;9.964;2022-12-07T09:57:10;4.47;;;1.60;;
44816;SDS011;30529;53.570;9.964;2022-12-07T09:59:38;4.30;;;1.40;;
44816;SDS011;30529;53.570;9.964;2022-12-07T10:04:49;5.90;;;1.50;;
44816;SDS011;30529;53.570;9.964;2022-12-07T10:07:16;3.50;;;1.27;;
44816;SDS011;30529;53.570;9.964;2022-12-07T10:09:42;5.67;;;1.70;;
44816;SDS011;30529;53.570;9.964;2022-12-07T10:12:09;3.57;;;1.20;;
44816;SDS011;30529;53.570;9.964;2022-12-07T10:14:38;4.60;;;1.27;;
44816;SDS011;30529;53.570;9.964;2022-12-07T10:22:37;6.93;;;1.00;;
44816;SDS011;30529;53.570;9.964;2022-12-07T10:25:19;4.23;;;1.20;;
44816;SDS011;30529;53.570;9.964;2022-12-07T10:27:57;6.47;;;1.57;;
44816;SDS011;30529;53.570;9.964;2022-12-07T10:30:25;5.10;;;1.50;;
44816;SDS011;30529;53.570;9.964;2022-12-07T10:32:51;5.30;;;1.57;;
44816;SDS011;30529;53.570;9.964;2022-12-07T10:35:21;4.93;;;1.40;;
44816;SDS011;30529;53.570;9.964;2022-12-07T10:37:55;3.47;;;1.20;;
44816;SDS011;30529;53.570;9.964;2022-12-07T10:59:38;4.10;;;1.17;;
44816;SDS011;30529;53.570;9.964;2022-12-07T11:02:24;3.40;;;1.07;;
44816;SDS011;30529;53.570;9.964;2022-12-07T11:05:13;5.67;;;1.50;;
44816;SDS011;30529;53.570;9.964;2022-12-07T11:10:39;8.70;;;1.73;;
44816;SDS011;30529;53.570;9.964;2022-12-07T11:13:28;4.83;;;1.27;;
44816;SDS011;30529;53.570;9.964;2022-12-07T11:18:45;7.10;;;1.97;;
44816;SDS011;30529;53.570;9.964;2022-12-07T11:21:30;5.17;;;1.30;;
44816;SDS011;30529;53.570;9.964;2022-12-07T11:24:16;4.50;;;1.60;;
44816;SDS011;30529;53.570;9.964;2022-12-07T11:32:40;6.53;;;1.63;;
44816;SDS011;30529;53.570;9.964;2022-12-07T11:38:16;5.73;;;1.43;;
44816;SDS011;30529;53.570;9.964;2022-12-07T11:40:46;5.80;;;1.40;;
44816;SDS011;30529;53.570;9.964;2022-12-07T11:43:18;5.73;;;1.50;;
44816;SDS011;30529;53.570;9.964;2022-12-07T11:45:52;6.53;;;1.50;;
44816;SDS011;30529;53.570;9.964;2022-12-07T11:51:20;5.50;;;1.50;;
44816;SDS011;30529;53.570;9.964;2022-12-07T11:56:21;4.20;;;1.57;;
44816;SDS011;30529;53.570;9.964;2022-12-07T11:58:53;5.30;;;1.73;;
44816;SDS011;30529;53.570;9.964;2022-12-07T12:06:37;5.43;;;1.67;;
44816;SDS011;30529;53.570;9.964;2022-12-07T12:09:06;6.20;;;2.17;;
44816;SDS011;30529;53.570;9.964;2022-12-07T12:14:57;2.13;;;1.13;;
44816;SDS011;30529;53.570;9.964;2022-12-07T12:17:43;7.60;;;1.23;;
44816;SDS011;30529;53.570;9.964;2022-12-07T12:25:57;6.50;;;1.57;;
44816;SDS011;30529;53.570;9.964;2022-12-07T12:31:09;7.50;;;1.63;;
44816;SDS011;30529;53.570;9.964;2022-12-07T12:33:50;7.50;;;2.27;;
44816;SDS011;30529;53.570;9.964;2022-12-07T12:38:48;4.33;;;1.77;;
44816;SDS011;30529;53.570;9.964;2022-12-07T12:44:01;9.00;;;1.40;;
44816;SDS011;30529;53.570;9.964;2022-12-07T13:02:27;8.47;;;1.57;;
44816;SDS011;30529;53.570;9.964;2022-12-07T13:15:43;6.30;;;2.00;;
44816;SDS011;30529;53.570;9.964;2022-12-07T13:28:42;5.33;;;1.13;;
44816;SDS011;30529;53.570;9.964;2022-12-07T13:31:40;10.03;;;1.53;;
44816;SDS011;30529;53.570;9.964;2022-12-07T13:36:57;10.70;;;1.70;;
44816;SDS011;30529;53.570;9.964;2022-12-07T13:39:27;3.40;;;1.37;;
44816;SDS011;30529;53.570;9.964;2022-12-07T13:41:57;7.43;;;1.13;;
44816;SDS011;30529;53.570;9.964;2022-12-07T13:44:26;4.97;;;1.40;;
44816;SDS011;30529;53.570;9.964;2022-12-07T13:49:32;6.50;;;1.43;;
44816;SDS011;30529;53.570;9.964;2022-12-07T13:52:19;6.40;;;1.30;;
44816;SDS011;30529;53.570;9.964;2022-12-07T13:57:24;5.20;;;1.23;;
44816;SDS011;30529;53.570;9.964;2022-12-07T13:59:52;3.87;;;1.10;;
44816;SDS011;30529;53.570;9.964;2022-12-07T14:02:31;5.30;;;1.13;;
44816;SDS011;30529;53.570;9.964;2022-12-07T14:05:07;7.90;;;1.17;;
44816;SDS011;30529;53.570;9.964;2022-12-07T14:07:33;3.40;;;1.77;;
44816;SDS011;30529;53.570;9.964;2022-12-07T14:10:04;3.50;;;1.00;;
44816;SDS011;30529;53.570;9.964;2022-12-07T14:12:32;4.03;;;1.10;;
44816;SDS011;30529;53.570;9.964;2022-12-07T14:15:05;6.00;;;1.00;;
44816;SDS011;30529;53.570;9.964;2022-12-07T14:17:49;4.00;;;1.03;;
44816;SDS011;30529;53.570;9.964;2022-12-07T14:23:01;7.30;;;1.60;;
44816;SDS011;30529;53.570;9.964;2022-12-07T14:25:47;3.40;;;1.00;;
44816;SDS011;30529;53.570;9.964;2022-12-07T14:28:28;2.93;;;1.20;;
44816;SDS011;30529;53.570;9.964;2022-12-07T14:30:56;5.17;;;1.27;;
44816;SDS011;30529;53.570;9.964;2022-12-07T14:33:23;2.80;;;1.10;;
44816;SDS011;30529;53.570;9.964;2022-12-07T14:35:50;3.83;;;1.20;;
44816;SDS011;30529;53.570;9.964;2022-12-07T14:38:21;5.07;;;1.60;;
44816;SDS011;30529;53.570;9.964;2022-12-07T14:40:47;6.43;;;1.60;;
44816;SDS011;30529;53.570;9.964;2022-12-07T14:43:15;7.40;;;1.53;;
44816;SDS011;30529;53.570;9.964;2022-12-07T14:45:42;6.10;;;1.67;;
44816;SDS011;30529;53.570;9.964;2022-12-07T14:48:12;2.77;;;1.10;;
44816;SDS011;30529;53.570;9.964;2022-12-07T14:50:48;5.67;;;1.67;;
44816;SDS011;30529;53.570;9.964;2022-12-07T14:53:17;5.30;;;1.20;;
44816;SDS011;30529;53.570;9.964;2022-12-07T14:55:47;3.57;;;1.20;;
44816;SDS011;30529;53.570;9.964;2022-12-07T14:58:14;4.73;;;1.10;;
44816;SDS011;30529;53.570;9.964;2022-12-07T15:00:42;11.03;;;1.53;;
44816;SDS011;30529;53.570;9.964;2022-12-07T15:03:10;5.57;;;1.43;;
44816;SDS011;30529;53.570;9.964;2022-12-07T15:05:44;3.73;;;1.50;;
44816;SDS011;30529;53.570;9.964;2022-12-07T15:08:14;5.23;;;1.93;;
44816;SDS011;30529;53.570;9.964;2022-12-07T15:10:40;5.73;;;1.30;;
44816;SDS011;30529;53.570;9.964;2022-12-07T15:13:10;6.83;;;1.50;;
44816;SDS011;30529;53.570;9.964;2022-12-07T15:15:55;6.20;;;1.37;;
44816;SDS011;30529;53.570;9.964;2022-12-07T15:18:22;9.67;;;1.60;;
44816;SDS011;30529;53.570;9.964;2022-12-07T15:20:49;3.17;;;1.33;;
44816;SDS011;30529;53.570;9.964;2022-12-07T15:23:19;5.17;;;1.77;;
44816;SDS011;30529;53.570;9.964;2022-12-07T15:25:46;4.33;;;1.83;;
44816;SDS011;30529;53.570;9.964;2022-12-07T15:28:13;7.57;;;1.90;;
44816;SDS011;30529;53.570;9.964;2022-12-07T15:30:40;8.30;;;1.60;;
44816;SDS011;30529;53.570;9.964;2022-12-07T15:33:11;7.20;;;1.80;;
44816;SDS011;30529;53.570;9.964;2022-12-07T15:35:39;4.73;;;1.80;;
44816;SDS011;30529;53.570;9.964;2022-12-07T15:38:05;5.90;;;1.30;;
44816;SDS011;30529;53.570;9.964;2022-12-07T15:40:32;6.50;;;1.70;;
44816;SDS011;30529;53.570;9.964;2022-12-07T15:42:58;4.27;;;1.50;;
44816;SDS011;30529;53.570;9.964;2022-12-07T15:45:24;4.40;;;1.40;;
44816;SDS011;30529;53.570;9.964;2022-12-07T15:47:50;9.60;;;3.23;;
44816;SDS011;30529;53.570;9.964;2022-12-07T15:50:16;5.47;;;1.67;;
44816;SDS011;30529;53.570;9.964;2022-12-07T15:52:42;7.23;;;2.20;;
44816;SDS011;30529;53.570;9.964;2022-12-07T15:55:09;11.50;;;2.20;;
44816;SDS011;30529;53.570;9.964;2022-12-07T15:57:36;6.87;;;2.00;;
44816;SDS011;30529;53.570;9.964;2022-12-07T16:00:04;8.40;;;2.83;;
44816;SDS011;30529;53.570;9.964;2022-12-07T16:02:32;13.27;;;2.93;;
44816;SDS011;30529;53.570;9.964;2022-12-07T16:04:58;7.47;;;2.17;;
44816;SDS011;30529;53.570;9.964;2022-12-07T16:07:24;7.07;;;2.23;;
44816;SDS011;30529;53.570;9.964;2022-12-07T16:09:50;8.37;;;1.90;;
44816;SDS011;30529;53.570;9.964;2022-12-07T16:12:16;5.13;;;2.37;;
44816;SDS011;30529;53.570;9.964;2022-12-07T16:14:42;5.33;;;2.27;;
44816;SDS011;30529;53.570;9.964;2022-12-07T16:17:09;9.77;;;2.30;;
44816;SDS011;30529;53.570;9.964;2022-12-07T16:19:35;5.90;;;2.50;;
44816;SDS011;30529;53.570;9.964;2022-12-07T16:22:03;6.50;;;2.20;;
44816;SDS011;30529;53.570;9.964;2022-12-07T16:24:30;4.33;;;2.13;;
44816;SDS011;30529;53.570;9.964;2022-12-07T16:26:56;5.80;;;2.00;;
44816;SDS011;30529;53.570;9.964;2022-12-07T16:29:22;5.07;;;2.03;;
44816;SDS011;30529;53.570;9.964;2022-12-07T16:31:49;4.97;;;2.17;;
44816;SDS011;30529;53.570;9.964;2022-12-07T16:34:16;6.47;;;2.43;;
44816;SDS011;30529;53.570;9.964;2022-12-07T16:36:43;6.20;;;2.23;;
44816;SDS011;30529;53.570;9.964;2022-12-07T16:39:09;8.87;;;2.70;;
44816;SDS011;30529;53.570;9.964;2022-12-07T16:41:36;8.53;;;2.27;;
44816;SDS011;30529;53.570;9.964;2022-12-07T16:44:03;4.93;;;2.27;;
44816;SDS011;30529;53.570;9.964;2022-12-07T16:46:31;8.13;;;1.77;;
44816;SDS011;30529;53.570;9.964;2022-12-07T16:48:58;9.57;;;3.27;;
44816;SDS011;30529;53.570;9.964;2022-12-07T16:51:24;5.70;;;1.83;;
44816;SDS011;30529;53.570;9.964;2022-12-07T16:53:50;6.17;;;2.37;;
44816;SDS011;30529;53.570;9.964;2022-12-07T16:56:19;8.13;;;2.00;;
44816;SDS011;30529;53.570;9.964;2022-12-07T16:58:45;9.53;;;3.20;;
44816;SDS011;30529;53.570;9.964;2022-12-07T17:01:14;6.77;;;2.50;;
44816;SDS011;30529;53.570;9.964;2022-12-07T17:03:43;6.57;;;2.03;;
44816;SDS011;30529;53.570;9.964;2022-12-07T17:06:22;5.30;;;2.30;;
44816;SDS011;30529;53.570;9.964;2022-12-07T17:08:50;8.27;;;2.23;;
44816;SDS011;30529;53.570;9.964;2022-12-07T17:11:18;5.10;;;1.87;;
44816;SDS011;30529;53.570;9.964;2022-12-07T17:13:46;5.73;;;2.03;;
44816;SDS011;30529;53.570;9.964;2022-12-07T17:16:34;6.23;;;1.93;;
44816;SDS011;30529;53.570;9.964;2022-12-07T17:19:04;4.13;;;1.80;;
44816;SDS011;30529;53.570;9.964;2022-12-07T17:21:31;9.33;;;2.30;;
44816;SDS011;30529;53.570;9.964;2022-12-07T17:23:58;6.37;;;2.30;;
44816;SDS011;30529;53.570;9.964;2022-12-07T17:26:26;6.77;;;2.50;;
44816;SDS011;30529;53.570;9.964;2022-12-07T17:28:53;9.87;;;2.53;;
44816;SDS011;30529;53.570;9.964;2022-12-07T17:31:20;9.33;;;2.97;;
44816;SDS011;30529;53.570;9.964;2022-12-07T17:33:48;9.07;;;2.57;;